createdAt,value
2018-11-27T00:01:29.184Z,17.90
2018-11-27T00:03:58.262Z,19.00
2018-11-27T00:06:26.969Z,22.30
2018-11-27T00:08:56.345Z,19.70
2018-11-27T00:11:25.029Z,20.00
2018-11-27T00:13:54.708Z,19.27
2018-11-27T00:16:23.432Z,18.87
2018-11-27T00:18:52.216Z,21.37
2018-11-27T00:21:20.946Z,16.67
2018-11-27T00:23:49.642Z,18.37
2018-11-27T00:26:19.035Z,19.00
2018-11-27T00:28:47.696Z,20.73
2018-11-27T00:31:16.408Z,18.07
2018-11-27T00:33:45.134Z,18.93
2018-11-27T00:36:14.529Z,20.13
2018-11-27T00:38:44.009Z,18.70
2018-11-27T00:41:13.391Z,17.77
2018-11-27T00:43:42.115Z,20.13
2018-11-27T00:46:10.820Z,21.97
2018-11-27T00:48:40.282Z,18.83
2018-11-27T00:51:09.050Z,21.43
2018-11-27T00:53:37.760Z,16.83
2018-11-27T00:56:07.020Z,17.53
2018-11-27T00:58:35.681Z,19.20
2018-11-27T01:01:05.273Z,17.77
2018-11-27T01:03:33.978Z,19.47
2018-11-27T01:06:02.670Z,16.83
2018-11-27T01:08:32.085Z,17.90
2018-11-27T01:11:00.833Z,20.50
2018-11-27T01:13:29.602Z,21.33
2018-11-27T01:15:58.381Z,21.43
2018-11-27T01:18:27.127Z,18.33
2018-11-27T01:20:55.838Z,19.60
2018-11-27T01:23:24.551Z,18.83
2018-11-27T01:25:53.349Z,18.73
2018-11-27T01:28:22.047Z,21.03
2018-11-27T01:30:50.765Z,17.10
2018-11-27T01:33:19.499Z,16.97
2018-11-27T01:35:48.179Z,15.07
2018-11-27T01:38:16.891Z,18.70
2018-11-27T01:40:45.594Z,15.97
2018-11-27T01:43:14.800Z,15.87
2018-11-27T01:45:43.541Z,16.87
2018-11-27T01:48:12.377Z,16.07
2018-11-27T01:50:42.165Z,16.87
2018-11-27T01:53:10.931Z,17.03
2018-11-27T01:55:45.217Z,16.93
2018-11-27T01:58:19.678Z,17.77
2018-11-27T02:00:48.761Z,18.00
2018-11-27T02:03:17.529Z,16.70
2018-11-27T02:05:47.480Z,17.07
2018-11-27T02:08:16.195Z,17.33
2018-11-27T02:10:44.920Z,18.00
2018-11-27T02:13:13.596Z,19.60
2018-11-27T02:15:42.344Z,17.60
2018-11-27T02:18:11.064Z,17.17
2018-11-27T02:20:40.776Z,17.10
2018-11-27T02:23:10.017Z,18.23
2018-11-27T02:25:38.896Z,18.80
2018-11-27T02:28:09.606Z,20.10
2018-11-27T02:30:43.800Z,17.47
2018-11-27T02:33:12.569Z,17.37
2018-11-27T02:35:42.209Z,19.13
2018-11-27T02:38:10.943Z,18.33
2018-11-27T02:40:39.675Z,18.93
2018-11-27T02:43:08.356Z,17.30
2018-11-27T02:45:37.838Z,18.33
2018-11-27T02:48:07.699Z,18.43
2018-11-27T02:50:37.124Z,20.57
2018-11-27T02:53:05.472Z,17.30
2018-11-27T02:55:39.239Z,18.73
2018-11-27T02:58:08.023Z,17.90
2018-11-27T03:00:36.776Z,20.30
2018-11-27T03:03:06.580Z,16.70
2018-11-27T03:05:36.413Z,19.10
2018-11-27T03:08:06.695Z,17.73
2018-11-27T03:10:35.498Z,18.13
2018-11-27T03:13:10.446Z,19.20
2018-11-27T03:15:40.103Z,19.20
2018-11-27T03:18:15.036Z,17.67
2018-11-27T03:20:44.525Z,17.70
2018-11-27T03:23:14.254Z,19.70
2018-11-27T03:25:43.889Z,17.57
2018-11-27T03:28:14.611Z,17.27
2018-11-27T03:30:44.538Z,19.67
2018-11-27T03:33:15.478Z,17.53
2018-11-27T03:35:44.322Z,19.97
2018-11-27T03:38:13.093Z,22.20
2018-11-27T03:40:41.824Z,20.20
2018-11-27T03:43:10.610Z,20.47
2018-11-27T03:45:40.237Z,20.60
2018-11-27T03:48:09.022Z,21.50
2018-11-27T03:50:37.817Z,18.23
2018-11-27T03:53:07.722Z,17.70
2018-11-27T03:55:37.947Z,20.80
2018-11-27T03:58:07.351Z,21.03
2018-11-27T04:00:37.075Z,19.53
2018-11-27T04:03:09.324Z,19.27
2018-11-27T04:05:39.279Z,20.33
2018-11-27T04:08:09.320Z,21.10
2018-11-27T04:10:39.713Z,21.67
2018-11-27T04:13:09.384Z,21.93
2018-11-27T04:15:38.798Z,18.27
2018-11-27T04:18:07.610Z,21.30
2018-11-27T04:20:37.051Z,17.33
2018-11-27T04:23:05.866Z,20.30
2018-11-27T04:25:34.568Z,20.33
2018-11-27T04:28:05.610Z,21.30
2018-11-27T04:30:34.393Z,22.07
2018-11-27T04:33:03.960Z,20.83
2018-11-27T04:35:33.466Z,20.47
2018-11-27T04:38:02.247Z,19.53
2018-11-27T04:40:35.059Z,21.50
2018-11-27T04:43:05.466Z,20.47
2018-11-27T04:45:34.227Z,23.30
2018-11-27T04:48:02.931Z,25.37
2018-11-27T04:50:31.640Z,25.13
2018-11-27T04:53:00.673Z,27.03
2018-11-27T04:55:29.636Z,26.07
2018-11-27T04:57:59.638Z,28.17
2018-11-27T05:00:28.620Z,27.27
2018-11-27T05:02:57.522Z,30.20
2018-11-27T05:05:28.012Z,28.13
2018-11-27T05:07:58.142Z,27.30
2018-11-27T05:10:27.046Z,22.83
2018-11-27T05:12:55.910Z,25.53
2018-11-27T05:15:26.140Z,27.23
2018-11-27T05:18:02.869Z,26.33
2018-11-27T05:20:36.314Z,28.67
2018-11-27T05:23:07.542Z,28.53
2018-11-27T05:25:39.791Z,28.93
2018-11-27T05:28:14.248Z,30.10
2018-11-27T05:30:42.955Z,28.27
2018-11-27T05:33:11.747Z,23.80
2018-11-27T05:35:40.583Z,28.57
2018-11-27T05:38:14.407Z,23.10
2018-11-27T05:40:43.205Z,26.53
2018-11-27T05:43:11.934Z,20.93
2018-11-27T05:46:11.982Z,33.63
2018-11-27T05:48:46.183Z,31.10
2018-11-27T05:51:24.761Z,29.97
2018-11-27T05:53:53.760Z,30.23
2018-11-27T05:56:23.594Z,31.90
2018-11-27T05:58:52.348Z,32.67
2018-11-27T06:01:22.837Z,28.63
2018-11-27T06:03:51.980Z,29.80
2018-11-27T06:06:22.203Z,30.33
2018-11-27T06:08:51.044Z,29.43
2018-11-27T06:11:20.352Z,32.80
2018-11-27T06:13:50.183Z,32.87
2018-11-27T06:16:18.891Z,39.57
2018-11-27T06:18:49.086Z,38.37
2018-11-27T06:21:17.748Z,41.77
2018-11-27T06:23:47.293Z,40.87
2018-11-27T06:26:16.788Z,47.73
2018-11-27T06:28:48.756Z,38.50
2018-11-27T06:31:17.635Z,32.30
2018-11-27T06:33:46.439Z,28.27
2018-11-27T06:36:15.199Z,24.20
2018-11-27T06:38:43.853Z,27.90
2018-11-27T06:41:12.523Z,32.43
2018-11-27T06:43:41.339Z,33.27
2018-11-27T06:46:10.079Z,29.00
2018-11-27T06:48:38.803Z,23.33
2018-11-27T06:51:08.791Z,22.07
2018-11-27T06:53:38.472Z,26.97
2018-11-27T06:56:07.305Z,26.97
2018-11-27T06:58:36.051Z,27.73
2018-11-27T07:01:10.193Z,26.07
2018-11-27T07:03:38.853Z,22.53
2018-11-27T07:06:07.560Z,27.50
2018-11-27T07:08:37.217Z,25.83
2018-11-27T07:11:12.099Z,22.37
2018-11-27T07:13:40.916Z,25.70
2018-11-27T07:16:10.383Z,23.63
2018-11-27T07:18:39.460Z,25.07
2018-11-27T07:21:08.137Z,27.73
2018-11-27T07:23:36.864Z,27.37
2018-11-27T07:26:09.713Z,21.77
2018-11-27T07:28:39.117Z,20.40
2018-11-27T07:31:10.673Z,20.93
2018-11-27T07:33:40.322Z,20.77
2018-11-27T07:36:08.986Z,20.00
2018-11-27T07:38:37.650Z,18.87
2018-11-27T07:41:06.551Z,20.83
2018-11-27T07:43:35.259Z,20.93
2018-11-27T07:46:04.089Z,21.40
2018-11-27T07:48:32.717Z,18.90
2018-11-27T07:51:02.179Z,21.87
2018-11-27T07:53:31.031Z,22.67
2018-11-27T07:55:59.746Z,20.23
2018-11-27T07:58:28.486Z,21.83
2018-11-27T08:00:57.293Z,21.87
2018-11-27T08:03:25.976Z,24.30
2018-11-27T08:05:54.641Z,19.90
2018-11-27T08:08:28.541Z,19.30
2018-11-27T08:10:57.306Z,19.50
2018-11-27T08:13:25.939Z,21.47
2018-11-27T08:15:54.589Z,22.47
2018-11-27T08:18:23.245Z,26.23
2018-11-27T08:20:51.928Z,25.10
2018-11-27T08:23:20.619Z,21.83
2018-11-27T08:25:49.301Z,22.53
2018-11-27T08:28:18.643Z,22.13
2018-11-27T08:30:47.374Z,20.70
2018-11-27T08:33:21.824Z,23.07
2018-11-27T08:35:50.539Z,19.43
2018-11-27T08:38:19.250Z,21.13
2018-11-27T08:40:47.961Z,18.83
2018-11-27T08:43:16.717Z,19.53
2018-11-27T08:45:45.425Z,23.60
2018-11-27T08:48:19.632Z,22.60
2018-11-27T08:50:48.341Z,20.93
2018-11-27T08:53:16.989Z,20.17
2018-11-27T08:55:45.669Z,21.80
2018-11-27T08:58:18.585Z,23.17
2018-11-27T09:00:47.319Z,21.23
2018-11-27T09:03:15.978Z,20.00
2018-11-27T09:05:44.700Z,23.07
2018-11-27T09:08:14.201Z,21.63
2018-11-27T09:10:42.840Z,23.33
2018-11-27T09:13:13.381Z,21.77
2018-11-27T09:15:42.582Z,23.47
2018-11-27T09:18:17.581Z,23.47
2018-11-27T09:20:46.870Z,25.03
2018-11-27T09:23:20.945Z,25.13
2018-11-27T09:25:49.711Z,25.77
2018-11-27T09:28:18.440Z,22.50
2018-11-27T09:30:47.813Z,24.53
2018-11-27T09:33:17.265Z,25.97
2018-11-27T09:35:45.997Z,24.03
2018-11-27T09:38:15.591Z,25.43
2018-11-27T09:40:44.359Z,26.13
2018-11-27T09:43:13.043Z,24.27
2018-11-27T09:45:42.873Z,26.30
2018-11-27T09:48:11.589Z,23.13
2018-11-27T09:50:40.327Z,19.43
2018-11-27T09:53:12.051Z,17.10
2018-11-27T09:55:40.716Z,16.80
2018-11-27T09:58:09.399Z,16.13
2018-11-27T10:00:38.132Z,14.53
2018-11-27T10:03:09.717Z,14.90
2018-11-27T10:05:39.171Z,14.00
2018-11-27T10:08:08.523Z,14.67
2018-11-27T10:10:37.236Z,13.50
2018-11-27T10:13:07.224Z,13.37
2018-11-27T10:15:35.964Z,13.30
2018-11-27T10:18:04.780Z,13.47
2018-11-27T10:20:37.708Z,14.53
2018-11-27T10:23:08.523Z,14.47
2018-11-27T10:25:37.204Z,16.03
2018-11-27T10:28:06.724Z,15.67
2018-11-27T10:30:35.463Z,14.53
2018-11-27T10:33:05.292Z,15.73
2018-11-27T10:35:41.230Z,14.40
2018-11-27T10:38:09.894Z,13.50
2018-11-27T10:40:38.570Z,16.20
2018-11-27T10:43:08.735Z,15.77
2018-11-27T10:45:37.472Z,16.23
2018-11-27T10:48:07.051Z,15.57
2018-11-27T10:50:35.738Z,17.47
2018-11-27T10:53:05.083Z,13.60
2018-11-27T10:55:33.727Z,13.67
2018-11-27T10:58:08.606Z,17.30
2018-11-27T11:00:42.055Z,17.47
2018-11-27T11:03:25.939Z,16.20
2018-11-27T11:06:00.332Z,15.47
2018-11-27T11:08:29.031Z,14.97
2018-11-27T11:10:57.681Z,15.83
2018-11-27T11:13:26.392Z,13.87
2018-11-27T11:15:55.111Z,14.00
2018-11-27T11:18:25.116Z,14.73
2018-11-27T11:20:53.762Z,14.43
2018-11-27T11:23:22.398Z,14.27
2018-11-27T11:25:51.037Z,16.67
2018-11-27T11:28:21.287Z,14.50
2018-11-27T11:30:55.409Z,16.67
2018-11-27T11:33:24.751Z,15.50
2018-11-27T11:35:53.417Z,17.63
2018-11-27T11:38:22.104Z,15.53
2018-11-27T11:40:50.740Z,19.47
2018-11-27T11:43:19.377Z,23.37
2018-11-27T11:45:48.058Z,16.40
2018-11-27T11:48:16.692Z,15.70
2018-11-27T11:50:45.349Z,16.17
2018-11-27T11:53:16.618Z,15.00
2018-11-27T11:55:45.831Z,15.30
2018-11-27T11:58:14.475Z,16.63
2018-11-27T12:00:47.489Z,16.63
2018-11-27T12:03:16.149Z,15.10
2018-11-27T12:05:44.819Z,18.30
2018-11-27T12:08:13.477Z,14.87
2018-11-27T12:10:42.102Z,15.60
2018-11-27T12:13:11.515Z,15.10
2018-11-27T12:15:40.183Z,15.40
2018-11-27T12:18:09.933Z,15.37
2018-11-27T12:20:39.440Z,15.10
2018-11-27T12:23:09.733Z,15.00
2018-11-27T12:25:38.667Z,16.40
2018-11-27T12:28:08.628Z,13.70
2018-11-27T12:30:37.314Z,14.57
2018-11-27T12:33:06.465Z,15.90
2018-11-27T12:35:35.461Z,15.07
2018-11-27T12:38:04.227Z,14.93
2018-11-27T12:40:32.903Z,16.17
2018-11-27T12:43:01.547Z,15.90
2018-11-27T12:45:31.870Z,19.17
2018-11-27T12:48:05.233Z,17.27
2018-11-27T12:50:48.947Z,16.37
2018-11-27T12:53:18.615Z,16.10
2018-11-27T12:55:49.449Z,18.10
2018-11-27T12:58:18.180Z,18.30
2018-11-27T13:00:48.089Z,20.20
2018-11-27T13:03:16.785Z,20.37
2018-11-27T13:05:46.286Z,19.07
2018-11-27T13:08:24.190Z,20.97
2018-11-27T13:10:58.381Z,20.80
2018-11-27T13:13:27.022Z,19.57
2018-11-27T13:15:55.650Z,20.67
2018-11-27T13:18:25.218Z,20.37
2018-11-27T13:20:53.891Z,19.77
2018-11-27T13:23:22.510Z,22.23
2018-11-27T13:25:51.219Z,21.40
2018-11-27T13:28:19.961Z,23.03
2018-11-27T13:30:56.024Z,22.60
2018-11-27T13:33:29.302Z,22.07
2018-11-27T13:35:57.950Z,23.17
2018-11-27T13:38:26.600Z,23.73
2018-11-27T13:41:01.008Z,23.50
2018-11-27T13:43:30.284Z,23.43
2018-11-27T13:46:00.104Z,22.33
2018-11-27T13:48:28.815Z,23.50
2018-11-27T13:50:57.443Z,23.73
2018-11-27T13:53:31.980Z,23.33
2018-11-27T13:56:00.602Z,22.70
2018-11-27T13:58:29.806Z,24.33
2018-11-27T14:00:58.515Z,23.10
2018-11-27T14:03:27.180Z,23.93
2018-11-27T14:05:55.821Z,22.17
2018-11-27T14:08:30.005Z,22.27
2018-11-27T14:10:58.676Z,22.33
2018-11-27T14:13:27.390Z,23.13
2018-11-27T14:15:56.083Z,22.40
2018-11-27T14:18:24.749Z,23.97
2018-11-27T14:20:53.500Z,24.87
2018-11-27T14:23:22.168Z,26.37
2018-11-27T14:25:51.076Z,25.97
2018-11-27T14:28:20.035Z,27.77
2018-11-27T14:30:48.684Z,29.90
2018-11-27T14:33:17.380Z,30.87
2018-11-27T14:35:46.033Z,32.87
2018-11-27T14:38:14.715Z,35.53
2018-11-27T14:40:43.399Z,35.97
2018-11-27T14:43:12.796Z,34.67
2018-11-27T14:45:41.523Z,37.40
2018-11-27T14:48:15.443Z,44.17
2018-11-27T14:50:44.163Z,45.73
2018-11-27T14:53:12.790Z,45.03
2018-11-27T14:55:43.090Z,45.40
2018-11-27T14:58:14.972Z,43.87
2018-11-27T15:00:40.476Z,40.10
2018-11-27T15:03:09.155Z,38.50
2018-11-27T15:05:38.865Z,41.13
2018-11-27T15:08:09.808Z,51.83
2018-11-27T15:10:39.740Z,46.50
2018-11-27T15:13:12.083Z,45.90
2018-11-27T15:15:40.771Z,52.70
2018-11-27T15:18:15.071Z,55.20
2018-11-27T15:20:43.821Z,44.40
2018-11-27T15:23:12.528Z,44.90
2018-11-27T15:25:41.186Z,52.37
2018-11-27T15:28:09.857Z,47.00
2018-11-27T15:30:39.811Z,50.73
2018-11-27T15:33:08.627Z,51.23
2018-11-27T15:35:43.387Z,49.43
2018-11-27T15:38:12.114Z,50.37
2018-11-27T15:40:40.963Z,48.27
2018-11-27T15:43:09.841Z,44.67
2018-11-27T15:45:39.461Z,41.17
2018-11-27T15:48:09.194Z,44.50
2018-11-27T15:50:38.551Z,44.63
2018-11-27T15:53:07.230Z,43.30
2018-11-27T15:55:39.352Z,53.53
2018-11-27T15:58:11.403Z,51.03
2018-11-27T16:00:40.961Z,45.97
2018-11-27T16:03:15.207Z,54.17
2018-11-27T16:05:44.986Z,52.03
2018-11-27T16:08:14.045Z,44.80
2018-11-27T16:10:42.748Z,46.63
2018-11-27T16:13:11.432Z,38.40
2018-11-27T16:15:40.224Z,41.40
2018-11-27T16:18:09.081Z,38.47
2018-11-27T16:20:38.119Z,34.30
2018-11-27T16:23:11.462Z,39.03
2018-11-27T16:25:42.713Z,36.97
2018-11-27T16:28:12.754Z,45.63
2018-11-27T16:30:42.922Z,36.40
2018-11-27T16:33:11.643Z,30.57
2018-11-27T16:35:42.116Z,31.97
2018-11-27T16:38:11.476Z,36.43
2018-11-27T16:40:43.600Z,41.37
2018-11-27T16:43:14.812Z,38.77
2018-11-27T16:45:59.770Z,38.27
2018-11-27T16:48:34.716Z,37.60
2018-11-27T16:51:05.402Z,39.03
2018-11-27T16:53:34.933Z,41.93
2018-11-27T16:56:04.941Z,40.60
2018-11-27T16:58:34.110Z,46.77
2018-11-27T17:01:08.982Z,42.50
2018-11-27T17:03:35.968Z,42.23
2018-11-27T17:06:04.899Z,45.67
2018-11-27T17:08:33.978Z,49.03
2018-11-27T17:11:05.943Z,44.53
2018-11-27T17:13:34.651Z,47.57
2018-11-27T17:16:04.201Z,50.83
2018-11-27T17:18:34.005Z,58.23
2018-11-27T17:21:09.986Z,52.40
2018-11-27T17:23:40.723Z,47.67
2018-11-27T17:26:09.653Z,59.60
2018-11-27T17:28:41.589Z,55.37
2018-11-27T17:31:14.717Z,51.27
2018-11-27T17:33:48.632Z,54.73
2018-11-27T17:36:21.912Z,53.90
2018-11-27T17:38:50.868Z,52.17
2018-11-27T17:41:29.000Z,45.40
2018-11-27T18:03:42.500Z,43.53
2018-11-27T18:06:11.101Z,45.60
2018-11-27T18:08:39.708Z,45.83
2018-11-27T18:11:08.388Z,43.30
2018-11-27T18:13:36.993Z,43.50
2018-11-27T18:16:05.949Z,46.57
2018-11-27T18:18:34.576Z,46.10
2018-11-27T18:21:03.205Z,42.53
2018-11-27T18:23:31.813Z,48.83
2018-11-27T18:26:00.542Z,50.70
2018-11-27T18:28:29.190Z,47.53
2018-11-27T18:30:57.828Z,50.73
2018-11-27T18:33:26.456Z,51.90
2018-11-27T18:35:55.099Z,50.30
2018-11-27T18:38:23.736Z,49.80
2018-11-27T18:40:52.478Z,55.03
2018-11-27T18:43:21.134Z,56.67
2018-11-27T18:45:49.811Z,57.53
2018-11-27T18:48:18.531Z,56.40
2018-11-27T18:50:47.221Z,61.53
2018-11-27T18:53:15.920Z,58.80
2018-11-27T18:55:44.638Z,59.60
2018-11-27T18:58:13.262Z,61.50
2018-11-27T19:00:41.881Z,57.67
2018-11-27T19:03:10.552Z,57.80
2018-11-27T19:05:39.518Z,57.00
2018-11-27T19:08:08.275Z,58.57
2018-11-27T19:10:37.223Z,57.60
2018-11-27T19:13:06.944Z,61.33
2018-11-27T19:15:38.129Z,57.03
2018-11-27T19:18:12.633Z,58.00
2018-11-27T19:20:41.358Z,67.30
2018-11-27T19:23:10.015Z,55.93
2018-11-27T19:25:38.632Z,59.27
2018-11-27T19:28:08.134Z,59.20
2018-11-27T19:30:36.770Z,60.90
2018-11-27T19:33:06.184Z,65.33
2018-11-27T19:35:35.496Z,63.03
2018-11-27T19:38:04.290Z,63.97
2018-11-27T19:40:32.969Z,61.07
2018-11-27T19:43:01.642Z,63.93
2018-11-27T19:45:30.278Z,62.70
2018-11-27T19:47:58.998Z,65.27
2018-11-27T19:50:28.023Z,65.73
2018-11-27T19:52:57.177Z,71.50
2018-11-27T19:55:26.188Z,66.03
2018-11-27T19:57:55.630Z,66.67
2018-11-27T20:00:25.655Z,71.10
2018-11-27T20:02:54.854Z,66.60
2018-11-27T20:05:29.557Z,70.97
2018-11-27T20:07:58.442Z,73.20
2018-11-27T20:10:27.082Z,72.93
2018-11-27T20:12:55.792Z,74.20
2018-11-27T20:15:30.032Z,72.40
2018-11-27T20:17:58.843Z,70.87
2018-11-27T20:20:28.518Z,78.87
2018-11-27T20:22:58.034Z,75.87
2018-11-27T20:25:26.717Z,74.30
2018-11-27T20:27:55.387Z,70.73
2018-11-27T20:30:26.133Z,68.47
2018-11-27T20:32:57.770Z,68.30
2018-11-27T20:35:26.946Z,75.10
2018-11-27T20:37:55.954Z,78.30
2018-11-27T20:40:24.770Z,69.53
2018-11-27T20:42:53.425Z,73.03
2018-11-27T20:45:24.454Z,67.87
2018-11-27T20:48:01.506Z,61.03
2018-11-27T20:50:30.143Z,65.23
2018-11-27T20:52:58.823Z,67.73
2018-11-27T20:55:34.527Z,66.73
2018-11-27T20:58:08.870Z,68.97
2018-11-27T21:00:39.663Z,69.30
2018-11-27T21:03:09.361Z,64.30
2018-11-27T21:05:38.036Z,62.97
2018-11-27T21:08:12.500Z,70.60
2018-11-27T21:10:41.157Z,70.43
2018-11-27T21:13:10.978Z,65.97
2018-11-27T21:15:40.902Z,68.13
2018-11-27T21:18:21.111Z,66.57
2018-11-27T21:20:49.790Z,70.77
2018-11-27T21:23:18.462Z,71.73
2018-11-27T21:25:47.049Z,75.17
2018-11-27T21:28:18.013Z,72.83
2018-11-27T21:30:48.429Z,70.97
2018-11-27T21:33:17.092Z,69.83
2018-11-27T21:35:51.399Z,76.67
2018-11-27T21:38:25.384Z,72.13
2018-11-27T21:40:54.026Z,78.30
2018-11-27T21:43:22.619Z,79.37
2018-11-27T21:45:51.267Z,81.93
2018-11-27T21:48:19.958Z,81.27
2018-11-27T21:50:48.570Z,78.20
2018-11-27T21:53:17.190Z,72.27
2018-11-27T21:55:45.830Z,79.90
2018-11-27T21:58:14.429Z,79.40
2018-11-27T22:00:43.370Z,74.43
2018-11-27T22:03:12.614Z,84.20
2018-11-27T22:05:41.287Z,85.13
2018-11-27T22:08:10.079Z,87.87
2018-11-27T22:10:39.047Z,84.67
2018-11-27T22:13:09.576Z,80.03
2018-11-27T22:15:39.538Z,87.83
2018-11-27T22:18:09.178Z,84.97
2018-11-27T22:20:37.832Z,86.13
2018-11-27T22:23:07.515Z,91.10
2018-11-27T22:25:36.239Z,96.23
2018-11-27T22:28:11.865Z,94.37
2018-11-27T22:30:40.464Z,90.83
2018-11-27T22:33:09.396Z,92.00
2018-11-27T22:35:38.379Z,96.30
2018-11-27T22:38:07.892Z,90.30
2018-11-27T22:40:36.637Z,96.63
2018-11-27T22:43:06.556Z,99.23
2018-11-27T22:45:38.560Z,95.07
2018-11-27T22:48:08.657Z,91.70
2018-11-27T22:50:37.308Z,82.63
2018-11-27T22:53:06.780Z,83.67
2018-11-27T22:55:35.663Z,82.23
2018-11-27T22:58:04.923Z,77.37
2018-11-27T23:00:38.832Z,82.67
2018-11-27T23:03:07.449Z,85.43
2018-11-27T23:05:36.038Z,89.10
2018-11-27T23:08:04.726Z,91.80
2018-11-27T23:10:35.200Z,89.00
2018-11-27T23:13:04.014Z,82.07
2018-11-27T23:15:32.650Z,78.33
2018-11-27T23:18:01.323Z,82.60
2018-11-27T23:20:29.982Z,81.27
2018-11-27T23:22:58.605Z,84.83
2018-11-27T23:25:27.254Z,89.33
2018-11-27T23:27:55.869Z,84.70
2018-11-27T23:30:25.456Z,82.10
2018-11-27T23:32:59.531Z,81.27
2018-11-27T23:35:28.134Z,91.20
2018-11-27T23:37:56.769Z,89.40
2018-11-27T23:40:25.452Z,89.73
2018-11-27T23:42:54.111Z,91.53
2018-11-27T23:45:23.684Z,82.97
2018-11-27T23:47:52.364Z,90.53
2018-11-27T23:50:21.906Z,99.60
2018-11-27T23:52:50.519Z,99.17
2018-11-27T23:55:19.920Z,89.37
2018-11-27T23:57:48.637Z,92.17
